createdAt,value
2023-01-09T00:02:54.968Z,7.30
2023-01-09T00:06:37.424Z,7.30
2023-01-09T00:10:19.343Z,7.30
2023-01-09T00:14:01.096Z,7.30
2023-01-09T00:17:42.871Z,7.20
2023-01-09T00:21:24.700Z,7.20
2023-01-09T00:25:07.138Z,7.20
2023-01-09T00:28:51.117Z,7.10
2023-01-09T00:32:32.841Z,7.10
2023-01-09T00:36:14.590Z,7.10
2023-01-09T00:39:56.331Z,7.10
2023-01-09T00:43:44.556Z,7.00
2023-01-09T00:47:33.267Z,7.00
2023-01-09T00:51:16.634Z,7.00
2023-01-09T00:54:59.310Z,7.00
2023-01-09T00:58:41.302Z,7.00
2023-01-09T01:02:23.144Z,7.00
2023-01-09T01:06:23.534Z,6.90
2023-01-09T01:10:16.208Z,6.90
2023-01-09T01:13:57.980Z,6.90
2023-01-09T01:17:41.087Z,6.90
2023-01-09T01:21:22.862Z,6.90
2023-01-09T01:25:05.373Z,7.00
2023-01-09T01:28:47.074Z,7.00
2023-01-09T01:32:28.772Z,7.00
2023-01-09T01:36:10.739Z,7.10
2023-01-09T01:39:52.473Z,7.10
2023-01-09T01:43:55.078Z,7.10
2023-01-09T01:48:03.815Z,7.20
2023-01-09T01:51:49.538Z,7.30
2023-01-09T01:55:33.435Z,7.30
2023-01-09T01:59:24.315Z,7.40
2023-01-09T02:03:07.543Z,7.40
2023-01-09T02:06:51.829Z,7.40
2023-01-09T02:10:34.409Z,7.40
2023-01-09T02:14:16.820Z,7.40
2023-01-09T02:18:08.309Z,7.40
2023-01-09T02:21:56.059Z,7.50
2023-01-09T02:26:12.888Z,7.40
2023-01-09T02:30:24.691Z,7.50
2023-01-09T02:34:17.921Z,7.50
2023-01-09T02:38:21.266Z,7.50
2023-01-09T02:42:22.567Z,7.60
2023-01-09T02:46:04.415Z,7.60
2023-01-09T02:49:52.918Z,7.60
2023-01-09T02:54:04.460Z,7.50
2023-01-09T02:57:57.134Z,7.50
2023-01-09T03:01:57.121Z,7.50
2023-01-09T03:05:45.179Z,7.50
2023-01-09T03:09:31.715Z,7.50
2023-01-09T03:13:18.351Z,7.50
2023-01-09T03:17:05.872Z,7.50
2023-01-09T03:20:48.951Z,7.50
2023-01-09T03:24:30.702Z,7.50
2023-01-09T03:28:29.453Z,7.50
2023-01-09T03:32:11.442Z,7.50
2023-01-09T03:35:53.172Z,7.50
2023-01-09T03:39:35.055Z,7.50
2023-01-09T03:43:16.782Z,7.50
2023-01-09T03:46:58.494Z,7.50
2023-01-09T03:50:42.611Z,7.50
2023-01-09T03:54:24.382Z,7.50
2023-01-09T03:58:06.132Z,7.50
2023-01-09T04:01:47.935Z,7.50
2023-01-09T04:05:29.835Z,7.50
2023-01-09T04:09:11.589Z,7.50
2023-01-09T04:12:53.349Z,7.50
2023-01-09T04:16:35.163Z,7.50
2023-01-09T04:20:17.184Z,7.60
2023-01-09T04:23:58.962Z,7.60
2023-01-09T04:27:40.721Z,7.60
2023-01-09T04:31:22.516Z,7.60
2023-01-09T04:35:04.638Z,7.60
2023-01-09T04:38:46.329Z,7.60
2023-01-09T04:42:28.067Z,7.60
2023-01-09T04:46:09.847Z,7.50
2023-01-09T04:49:52.110Z,7.50
2023-01-09T04:53:33.885Z,7.40
2023-01-09T04:57:15.597Z,7.50
2023-01-09T05:00:57.381Z,7.40
2023-01-09T05:04:39.155Z,7.50
2023-01-09T05:08:20.905Z,7.40
2023-01-09T05:12:02.719Z,7.40
2023-01-09T05:15:44.467Z,7.30
2023-01-09T05:19:26.229Z,7.30
2023-01-09T05:23:07.969Z,7.30
2023-01-09T05:26:49.714Z,7.30
2023-01-09T05:30:31.712Z,7.30
2023-01-09T05:34:13.460Z,7.40
2023-01-09T05:37:55.885Z,7.40
2023-01-09T05:41:37.886Z,7.40
2023-01-09T05:45:19.591Z,7.40
2023-01-09T05:49:01.332Z,7.30
2023-01-09T05:52:43.072Z,7.30
2023-01-09T05:56:24.819Z,7.20
2023-01-09T06:00:07.271Z,7.30
2023-01-09T06:03:48.985Z,7.30
2023-01-09T06:07:30.709Z,7.30
2023-01-09T06:11:12.425Z,7.40
2023-01-09T06:14:54.115Z,7.30
2023-01-09T06:18:35.943Z,7.30
2023-01-09T06:22:17.639Z,7.40
2023-01-09T06:25:59.358Z,7.30
2023-01-09T06:29:41.098Z,7.40
2023-01-09T06:33:22.901Z,7.40
2023-01-09T06:37:04.651Z,7.40
2023-01-09T06:40:46.389Z,7.40
2023-01-09T06:44:28.198Z,7.50
2023-01-09T06:48:10.673Z,7.50
2023-01-09T06:51:52.487Z,7.50
2023-01-09T06:55:34.390Z,7.50
2023-01-09T06:59:16.171Z,7.50
2023-01-09T07:02:57.897Z,7.50
2023-01-09T07:06:39.819Z,7.50
2023-01-09T07:10:21.557Z,7.50
2023-01-09T07:14:03.313Z,7.50
2023-01-09T07:17:45.088Z,7.50
2023-01-09T07:21:27.693Z,7.50
2023-01-09T07:25:09.435Z,7.40
2023-01-09T07:28:51.219Z,7.50
2023-01-09T07:32:33.909Z,7.50
2023-01-09T07:36:15.649Z,7.50
2023-01-09T07:39:57.431Z,7.50
2023-01-09T07:43:39.623Z,7.50
2023-01-09T07:47:21.442Z,7.50
2023-01-09T07:51:03.247Z,7.50
2023-01-09T07:54:44.950Z,7.50
2023-01-09T07:58:26.651Z,7.50
2023-01-09T08:02:09.687Z,7.40
2023-01-09T08:05:51.782Z,7.40
2023-01-09T08:09:33.589Z,7.40
2023-01-09T08:13:15.312Z,7.40
2023-01-09T08:16:57.052Z,7.40
2023-01-09T08:20:38.837Z,7.40
2023-01-09T08:24:20.660Z,7.40
2023-01-09T08:28:02.380Z,7.40
2023-01-09T08:31:44.164Z,7.40
2023-01-09T08:35:25.970Z,7.40
2023-01-09T08:39:08.861Z,7.50
2023-01-09T08:43:09.081Z,7.50
2023-01-09T08:47:05.982Z,7.50
2023-01-09T08:50:47.816Z,7.50
2023-01-09T08:54:31.287Z,7.60
2023-01-09T08:58:13.384Z,7.60
2023-01-09T09:01:55.271Z,7.60
2023-01-09T09:05:37.091Z,7.60
2023-01-09T09:09:19.391Z,7.60
2023-01-09T09:13:01.847Z,7.60
2023-01-09T09:16:43.610Z,7.50
2023-01-09T09:20:28.616Z,7.50
2023-01-09T09:24:10.461Z,7.50
2023-01-09T09:27:52.830Z,7.50
2023-01-09T09:31:37.520Z,7.60
2023-01-09T09:35:21.022Z,7.60
2023-01-09T09:39:02.810Z,7.70
2023-01-09T09:43:22.065Z,7.70
2023-01-09T09:47:30.925Z,7.70
2023-01-09T09:51:37.761Z,7.80
2023-01-09T09:55:29.452Z,7.90
2023-01-09T09:59:27.184Z,7.90
2023-01-09T10:03:34.656Z,8.00
2023-01-09T10:07:27.269Z,7.90
2023-01-09T10:11:17.205Z,7.90
2023-01-09T10:15:21.286Z,8.00
2023-01-09T10:19:02.976Z,8.00
2023-01-09T10:23:03.377Z,8.00
2023-01-09T10:30:45.947Z,8.00
2023-01-09T10:34:36.703Z,8.00
2023-01-09T10:38:29.160Z,8.00
2023-01-09T10:42:23.068Z,8.00
2023-01-09T10:46:30.933Z,8.10
2023-01-09T10:50:23.324Z,8.10
2023-01-09T10:54:12.640Z,8.10
2023-01-09T10:57:59.253Z,8.20
2023-01-09T11:01:43.276Z,8.20
2023-01-09T11:05:28.435Z,8.20
2023-01-09T11:09:10.734Z,8.20
2023-01-09T11:13:20.435Z,8.20
2023-01-09T11:17:04.351Z,8.30
2023-01-09T11:20:46.231Z,8.30
2023-01-09T11:24:30.881Z,8.30
2023-01-09T11:28:12.603Z,8.40
2023-01-09T11:31:58.839Z,8.40
2023-01-09T11:35:52.928Z,8.40
2023-01-09T11:39:38.090Z,8.40
2023-01-09T11:43:35.446Z,8.40
2023-01-09T11:47:39.092Z,8.40
2023-01-09T11:51:24.030Z,8.40
2023-01-09T11:55:12.198Z,8.40
2023-01-09T11:58:53.962Z,8.40
2023-01-09T12:02:57.356Z,8.30
2023-01-09T12:07:06.675Z,8.30
2023-01-09T12:11:15.714Z,8.20
2023-01-09T12:15:24.898Z,8.20
2023-01-09T12:19:53.016Z,8.10
2023-01-09T12:23:44.048Z,8.10
2023-01-09T12:28:04.672Z,8.00
2023-01-09T12:31:58.156Z,8.00
2023-01-09T12:35:50.111Z,8.00
2023-01-09T12:39:46.958Z,7.90
2023-01-09T12:43:33.123Z,7.90
2023-01-09T12:47:50.070Z,7.90
2023-01-09T12:51:43.530Z,8.00
2023-01-09T12:55:31.006Z,8.00
2023-01-09T12:59:37.140Z,8.10
2023-01-09T13:03:22.843Z,8.10
2023-01-09T13:07:18.101Z,8.20
2023-01-09T13:11:28.068Z,8.20
2023-01-09T13:15:34.875Z,8.20
2023-01-09T13:19:34.003Z,8.20
2023-01-09T13:23:56.641Z,8.10
2023-01-09T13:27:40.973Z,8.20
2023-01-09T13:31:44.551Z,8.20
2023-01-09T13:35:26.522Z,8.20
2023-01-09T13:39:08.346Z,8.20
2023-01-09T13:43:09.967Z,8.20
2023-01-09T13:46:58.985Z,8.20
2023-01-09T13:50:45.892Z,8.20
2023-01-09T13:54:55.628Z,8.20
2023-01-09T13:58:37.525Z,8.20
2023-01-09T14:02:49.904Z,8.20
2023-01-09T14:06:31.622Z,8.30
2023-01-09T14:10:25.674Z,8.30
2023-01-09T14:14:25.957Z,8.40
2023-01-09T14:18:26.012Z,8.40
2023-01-09T14:22:23.222Z,8.50
2023-01-09T14:26:06.000Z,8.60
2023-01-09T14:29:47.849Z,8.70
2023-01-09T14:33:36.205Z,8.80
2023-01-09T14:37:18.783Z,8.70
2023-01-09T14:41:19.084Z,8.70
2023-01-09T14:45:27.351Z,8.70
2023-01-09T14:49:33.449Z,8.80
2023-01-09T14:53:30.595Z,8.80
2023-01-09T14:57:26.162Z,8.80
2023-01-09T15:01:14.861Z,8.80
2023-01-09T15:05:02.765Z,8.80
2023-01-09T15:09:00.211Z,8.80
2023-01-09T15:12:46.440Z,8.70
2023-01-09T15:16:29.333Z,8.70
2023-01-09T15:20:20.534Z,8.70
2023-01-09T15:24:12.582Z,8.80
2023-01-09T15:27:57.882Z,8.80
2023-01-09T15:31:43.241Z,8.80
2023-01-09T15:35:26.131Z,8.80
2023-01-09T15:39:07.907Z,8.80
2023-01-09T15:42:57.425Z,8.70
2023-01-09T15:46:40.400Z,8.70
2023-01-09T15:50:28.479Z,8.70
2023-01-09T15:54:27.136Z,8.60
2023-01-09T15:58:30.367Z,8.50
2023-01-09T16:02:33.108Z,8.50
2023-01-09T16:06:28.517Z,8.50
2023-01-09T16:10:24.961Z,8.50
2023-01-09T16:14:47.609Z,8.40
2023-01-09T16:18:35.398Z,8.30
2023-01-09T16:22:23.804Z,8.30
2023-01-09T16:26:14.787Z,8.20
2023-01-09T16:30:06.283Z,8.20
2023-01-09T16:33:52.179Z,8.10
2023-01-09T16:37:34.488Z,8.10
2023-01-09T16:41:38.981Z,8.00
2023-01-09T16:45:26.171Z,7.90
2023-01-09T16:49:23.563Z,7.90
2023-01-09T16:53:16.785Z,7.80
2023-01-09T16:57:00.731Z,7.80
2023-01-09T17:00:42.626Z,7.80
2023-01-09T17:04:24.364Z,7.80
2023-01-09T17:08:23.816Z,7.70
2023-01-09T17:12:05.738Z,7.70
2023-01-09T17:15:47.834Z,7.70
2023-01-09T17:19:29.590Z,7.70
2023-01-09T17:23:11.831Z,7.70
2023-01-09T17:27:11.886Z,7.60
2023-01-09T17:30:53.573Z,7.60
2023-01-09T17:34:35.477Z,7.60
2023-01-09T17:38:17.519Z,7.60
2023-01-09T17:42:01.840Z,7.60
2023-01-09T17:45:43.731Z,7.50
2023-01-09T17:49:27.186Z,7.50
2023-01-09T17:53:08.854Z,7.50
2023-01-09T17:56:51.703Z,7.50
2023-01-09T18:00:36.898Z,7.50
2023-01-09T18:04:18.636Z,7.50
2023-01-09T18:08:00.529Z,7.40
2023-01-09T18:11:43.850Z,7.50
2023-01-09T18:15:26.083Z,7.50
2023-01-09T18:19:07.909Z,7.40
2023-01-09T18:22:49.623Z,7.40
2023-01-09T18:26:31.445Z,7.40
2023-01-09T18:30:13.265Z,7.40
2023-01-09T18:33:57.114Z,7.30
2023-01-09T18:37:38.867Z,7.30
2023-01-09T18:41:21.972Z,7.30
2023-01-09T18:45:04.009Z,7.30
2023-01-09T18:48:45.838Z,7.30
2023-01-09T18:52:28.268Z,7.40
2023-01-09T18:56:10.074Z,7.40
2023-01-09T18:59:51.764Z,7.40
2023-01-09T19:03:33.560Z,7.40
2023-01-09T19:07:15.874Z,7.40
2023-01-09T19:10:58.131Z,7.30
2023-01-09T19:14:39.956Z,7.30
2023-01-09T19:18:23.887Z,7.20
2023-01-09T19:22:05.673Z,7.20
2023-01-09T19:25:48.187Z,7.10
2023-01-09T19:29:30.055Z,7.10
2023-01-09T19:33:12.528Z,7.10
2023-01-09T19:36:54.414Z,7.00
2023-01-09T19:40:36.604Z,7.00
2023-01-09T19:44:19.032Z,6.90
2023-01-09T19:48:07.377Z,6.90
2023-01-09T19:51:50.263Z,7.00
2023-01-09T19:55:32.821Z,6.90
2023-01-09T19:59:17.845Z,6.90
2023-01-09T20:03:02.604Z,6.90
2023-01-09T20:06:47.191Z,6.90
2023-01-09T20:10:28.945Z,6.80
2023-01-09T20:14:19.007Z,6.80
2023-01-09T20:18:02.215Z,6.80
2023-01-09T20:21:44.225Z,6.90
2023-01-09T20:25:25.947Z,6.90
2023-01-09T20:29:10.688Z,6.90
2023-01-09T20:32:53.914Z,6.80
2023-01-09T20:36:36.153Z,6.80
2023-01-09T20:40:18.423Z,6.70
2023-01-09T20:44:07.166Z,6.70
2023-01-09T20:47:49.123Z,6.60
2023-01-09T20:51:31.172Z,6.50
2023-01-09T20:55:13.555Z,6.60
2023-01-09T20:58:55.946Z,6.50
2023-01-09T21:02:37.847Z,6.50
2023-01-09T21:06:21.830Z,6.50
2023-01-09T21:10:03.918Z,6.50
2023-01-09T21:13:45.636Z,6.40
2023-01-09T21:17:28.241Z,6.40
2023-01-09T21:21:13.486Z,6.40
2023-01-09T21:24:55.362Z,6.40
2023-01-09T21:28:45.883Z,6.40
2023-01-09T21:32:28.810Z,6.40
2023-01-09T21:36:10.652Z,6.50
2023-01-09T21:39:52.382Z,6.50
2023-01-09T21:43:52.997Z,6.50
2023-01-09T21:47:34.702Z,6.50
2023-01-09T21:51:19.574Z,6.50
2023-01-09T21:55:01.389Z,6.40
2023-01-09T21:58:46.127Z,6.40
2023-01-09T22:02:27.861Z,6.30
2023-01-09T22:06:09.832Z,6.30
2023-01-09T22:09:51.664Z,6.20
2023-01-09T22:13:33.371Z,6.20
2023-01-09T22:17:15.087Z,6.20
2023-01-09T22:20:56.964Z,6.20
2023-01-09T22:24:38.965Z,6.20
2023-01-09T22:28:21.492Z,6.20
2023-01-09T22:32:03.716Z,6.20
2023-01-09T22:35:45.564Z,6.10
2023-01-09T22:39:27.246Z,6.10
2023-01-09T22:43:16.064Z,6.10
2023-01-09T22:46:58.370Z,6.00
2023-01-09T22:50:40.083Z,6.00
2023-01-09T22:54:21.805Z,5.90
2023-01-09T22:58:04.287Z,5.90
2023-01-09T23:01:49.515Z,5.90
2023-01-09T23:05:31.915Z,5.80
2023-01-09T23:09:13.615Z,5.80
2023-01-09T23:12:55.325Z,5.80
2023-01-09T23:16:37.702Z,5.80
2023-01-09T23:20:19.680Z,5.80
2023-01-09T23:24:01.968Z,5.80
2023-01-09T23:27:45.767Z,5.80
2023-01-09T23:31:27.817Z,5.90
2023-01-09T23:35:10.037Z,5.80
2023-01-09T23:38:51.979Z,5.80
2023-01-09T23:42:52.723Z,5.80
2023-01-09T23:46:34.583Z,5.80
2023-01-09T23:50:16.660Z,5.90
2023-01-09T23:53:58.515Z,5.90
2023-01-09T23:57:40.541Z,5.80
